sensor_id;sensor_type;location;lat;lon;timestamp;pressure;altitude;pressure_sealevel;temperature;humidity
41632;BME280;37452;51.938;4.624;2023-03-14T00:00:33;75228.00;;;-142.75;100.00
41632;BME280;37452;51.938;4.624;2023-03-14T00:02:59;75239.81;;;-142.75;100.00
41632;BME280;37452;51.938;4.624;2023-03-14T00:05:24;75228.00;;;-142.75;100.00
41632;BME280;37452;51.938;4.624;2023-03-14T00:07:49;75228.00;;;-142.75;100.00
41632;BME280;37452;51.938;4.624;2023-03-14T00:10:15;75243.75;;;-142.75;100.00
41632;BME280;37452;51.938;4.624;2023-03-14T00:12:40;75233.91;;;-142.75;100.00
41632;BME280;37452;51.938;4.624;2023-03-14T00:15:06;75239.81;;;-142.75;100.00
41632;BME280;37452;51.938;4.624;2023-03-14T00:17:32;75239.81;;;-142.75;100.00
41632;BME280;37452;51.938;4.624;2023-03-14T00:19:57;75243.75;;;-142.75;100.00
41632;BME280;37452;51.938;4.624;2023-03-14T00:22:29;75259.50;;;-142.75;100.00
41632;BME280;37452;51.938;4.624;2023-03-14T00:24:54;75243.75;;;-142.75;100.00
41632;BME280;37452;51.938;4.624;2023-03-14T00:27:19;75247.69;;;-142.75;100.00
41632;BME280;37452;51.938;4.624;2023-03-14T00:29:44;75247.69;;;-142.75;100.00
41632;BME280;37452;51.938;4.624;2023-03-14T00:32:10;75249.66;;;-142.75;100.00
41632;BME280;37452;51.938;4.624;2023-03-14T00:34:35;75235.88;;;-142.75;100.00
41632;BME280;37452;51.938;4.624;2023-03-14T00:37:00;75249.66;;;-142.75;100.00
41632;BME280;37452;51.938;4.624;2023-03-14T00:39:25;75253.59;;;-142.75;100.00
41632;BME280;37452;51.938;4.624;2023-03-14T00:41:51;75255.56;;;-142.75;100.00
41632;BME280;37452;51.938;4.624;2023-03-14T00:44:16;75269.34;;;-142.75;100.00
41632;BME280;37452;51.938;4.624;2023-03-14T00:46:41;75273.28;;;-142.75;100.00
41632;BME280;37452;51.938;4.624;2023-03-14T00:49:06;75267.38;;;-142.75;100.00
41632;BME280;37452;51.938;4.624;2023-03-14T00:51:31;75259.50;;;-142.75;100.00
41632;BME280;37452;51.938;4.624;2023-03-14T00:53:57;75267.38;;;-142.75;100.00
41632;BME280;37452;51.938;4.624;2023-03-14T00:56:22;75273.28;;;-142.75;100.00
41632;BME280;37452;51.938;4.624;2023-03-14T00:58:47;75273.28;;;-142.75;100.00
41632;BME280;37452;51.938;4.624;2023-03-14T01:01:13;75279.19;;;-142.75;100.00
41632;BME280;37452;51.938;4.624;2023-03-14T01:03:39;75275.25;;;-142.75;100.00
41632;BME280;37452;51.938;4.624;2023-03-14T01:06:12;75263.44;;;-142.75;100.00
41632;BME280;37452;51.938;4.624;2023-03-14T01:08:37;75271.31;;;-142.75;100.00
41632;BME280;37452;51.938;4.624;2023-03-14T01:11:09;75249.66;;;-142.75;100.00
41632;BME280;37452;51.938;4.624;2023-03-14T01:13:35;75265.41;;;-142.75;100.00
41632;BME280;37452;51.938;4.624;2023-03-14T01:16:02;75259.50;;;-142.75;100.00
41632;BME280;37452;51.938;4.624;2023-03-14T01:18:27;75259.50;;;-142.75;100.00
41632;BME280;37452;51.938;4.624;2023-03-14T01:20:53;75271.31;;;-142.75;100.00
41632;BME280;37452;51.938;4.624;2023-03-14T01:23:18;75279.19;;;-142.75;100.00
41632;BME280;37452;51.938;4.624;2023-03-14T01:25:43;75310.66;;;-142.75;100.00
41632;BME280;37452;51.938;4.624;2023-03-14T01:28:08;75281.16;;;-142.75;100.00
41632;BME280;37452;51.938;4.624;2023-03-14T01:30:33;75287.06;;;-142.75;100.00
41632;BME280;37452;51.938;4.624;2023-03-14T01:32:59;75267.38;;;-142.75;100.00
41632;BME280;37452;51.938;4.624;2023-03-14T01:35:24;75275.25;;;-142.75;100.00
41632;BME280;37452;51.938;4.624;2023-03-14T01:37:49;75267.38;;;-142.75;100.00
41632;BME280;37452;51.938;4.624;2023-03-14T01:40:14;75261.47;;;-142.75;100.00
41632;BME280;37452;51.938;4.624;2023-03-14T01:42:44;75263.44;;;-142.75;100.00
41632;BME280;37452;51.938;4.624;2023-03-14T01:47:53;75259.50;;;-142.75;100.00
41632;BME280;37452;51.938;4.624;2023-03-14T01:50:18;75263.44;;;-142.75;100.00
41632;BME280;37452;51.938;4.624;2023-03-14T01:52:44;75273.28;;;-142.75;100.00
41632;BME280;37452;51.938;4.624;2023-03-14T01:55:15;75259.50;;;-142.75;100.00
41632;BME280;37452;51.938;4.624;2023-03-14T01:57:52;75261.47;;;-142.75;100.00
41632;BME280;37452;51.938;4.624;2023-03-14T02:00:22;75249.66;;;-142.75;100.00
41632;BME280;37452;51.938;4.624;2023-03-14T02:02:49;75291.00;;;-142.75;100.00
41632;BME280;37452;51.938;4.624;2023-03-14T02:05:17;75285.09;;;-142.75;100.00
41632;BME280;37452;51.938;4.624;2023-03-14T02:07:51;75273.28;;;-142.75;100.00
41632;BME280;37452;51.938;4.624;2023-03-14T02:10:17;75285.09;;;-142.75;100.00
41632;BME280;37452;51.938;4.624;2023-03-14T02:12:45;75287.06;;;-142.75;100.00
41632;BME280;37452;51.938;4.624;2023-03-14T02:15:10;75294.94;;;-142.75;100.00
41632;BME280;37452;51.938;4.624;2023-03-14T02:17:35;75285.09;;;-142.75;100.00
41632;BME280;37452;51.938;4.624;2023-03-14T02:22:33;75292.97;;;-142.75;100.00
41632;BME280;37452;51.938;4.624;2023-03-14T02:27:43;75267.38;;;-142.75;100.00
41632;BME280;37452;51.938;4.624;2023-03-14T02:30:10;75275.25;;;-142.75;100.00
41632;BME280;37452;51.938;4.624;2023-03-14T02:32:36;75267.38;;;-142.75;100.00
41632;BME280;37452;51.938;4.624;2023-03-14T02:35:04;75261.47;;;-142.75;100.00
41632;BME280;37452;51.938;4.624;2023-03-14T02:40:26;75261.47;;;-142.75;100.00
41632;BME280;37452;51.938;4.624;2023-03-14T02:42:51;75263.44;;;-142.75;100.00
41632;BME280;37452;51.938;4.624;2023-03-14T02:47:43;75239.81;;;-142.75;100.00
41632;BME280;37452;51.938;4.624;2023-03-14T02:50:10;75239.81;;;-142.75;100.00
41632;BME280;37452;51.938;4.624;2023-03-14T02:52:37;75243.75;;;-142.75;100.00
41632;BME280;37452;51.938;4.624;2023-03-14T02:55:02;75237.84;;;-142.75;100.00
41632;BME280;37452;51.938;4.624;2023-03-14T02:57:28;75233.91;;;-142.75;100.00
41632;BME280;37452;51.938;4.624;2023-03-14T02:59:54;75243.75;;;-142.75;100.00
41632;BME280;37452;51.938;4.624;2023-03-14T03:02:19;75243.75;;;-142.75;100.00
41632;BME280;37452;51.938;4.624;2023-03-14T03:04:44;75239.81;;;-142.75;100.00
41632;BME280;37452;51.938;4.624;2023-03-14T03:07:09;75231.94;;;-142.75;100.00
41632;BME280;37452;51.938;4.624;2023-03-14T03:09:35;75228.00;;;-142.75;100.00
41632;BME280;37452;51.938;4.624;2023-03-14T03:12:00;75231.94;;;-142.75;100.00
41632;BME280;37452;51.938;4.624;2023-03-14T03:14:25;75224.09;;;-142.75;100.00
41632;BME280;37452;51.938;4.624;2023-03-14T03:16:50;75216.22;;;-142.75;100.00
41632;BME280;37452;51.938;4.624;2023-03-14T03:19:15;75228.00;;;-142.75;100.00
41632;BME280;37452;51.938;4.624;2023-03-14T03:21:42;75218.19;;;-142.75;100.00
41632;BME280;37452;51.938;4.624;2023-03-14T03:24:07;75222.13;;;-142.75;100.00
41632;BME280;37452;51.938;4.624;2023-03-14T03:26:36;75216.22;;;-142.75;100.00
41632;BME280;37452;51.938;4.624;2023-03-14T03:29:01;75210.31;;;-142.75;100.00
41632;BME280;37452;51.938;4.624;2023-03-14T03:31:27;75202.44;;;-142.75;100.00
41632;BME280;37452;51.938;4.624;2023-03-14T03:33:52;75204.41;;;-142.75;100.00
41632;BME280;37452;51.938;4.624;2023-03-14T03:36:21;75208.34;;;-142.75;100.00
41632;BME280;37452;51.938;4.624;2023-03-14T03:38:47;75208.34;;;-142.75;100.00
41632;BME280;37452;51.938;4.624;2023-03-14T03:41:12;75212.28;;;-142.75;100.00
41632;BME280;37452;51.938;4.624;2023-03-14T03:43:38;75208.34;;;-142.75;100.00
41632;BME280;37452;51.938;4.624;2023-03-14T03:46:03;75216.22;;;-142.75;100.00
41632;BME280;37452;51.938;4.624;2023-03-14T03:48:29;75212.28;;;-142.75;100.00
41632;BME280;37452;51.938;4.624;2023-03-14T03:50:55;75224.09;;;-142.75;100.00
41632;BME280;37452;51.938;4.624;2023-03-14T03:53:20;75212.28;;;-142.75;100.00
41632;BME280;37452;51.938;4.624;2023-03-14T03:55:45;75212.28;;;-142.75;100.00
41632;BME280;37452;51.938;4.624;2023-03-14T03:58:10;75208.34;;;-142.75;100.00
41632;BME280;37452;51.938;4.624;2023-03-14T04:00:36;75214.25;;;-142.75;100.00
41632;BME280;37452;51.938;4.624;2023-03-14T04:03:01;75204.41;;;-142.75;100.00
41632;BME280;37452;51.938;4.624;2023-03-14T04:05:26;75212.28;;;-142.75;100.00
41632;BME280;37452;51.938;4.624;2023-03-14T04:07:51;75216.22;;;-142.75;100.00
41632;BME280;37452;51.938;4.624;2023-03-14T04:10:17;75204.41;;;-142.75;100.00
41632;BME280;37452;51.938;4.624;2023-03-14T04:12:42;75204.41;;;-142.75;100.00
41632;BME280;37452;51.938;4.624;2023-03-14T04:15:07;75206.38;;;-142.75;100.00
41632;BME280;37452;51.938;4.624;2023-03-14T04:17:32;75212.28;;;-142.75;100.00
41632;BME280;37452;51.938;4.624;2023-03-14T04:19:58;75204.41;;;-142.75;100.00
41632;BME280;37452;51.938;4.624;2023-03-14T04:22:23;75208.34;;;-142.75;100.00
41632;BME280;37452;51.938;4.624;2023-03-14T04:24:48;75204.41;;;-142.75;100.00
41632;BME280;37452;51.938;4.624;2023-03-14T04:27:13;75196.53;;;-142.75;100.00
41632;BME280;37452;51.938;4.624;2023-03-14T04:29:39;75180.78;;;-142.75;100.00
41632;BME280;37452;51.938;4.624;2023-03-14T04:32:04;75178.81;;;-142.75;100.00
41632;BME280;37452;51.938;4.624;2023-03-14T04:34:30;75184.72;;;-142.75;100.00
41632;BME280;37452;51.938;4.624;2023-03-14T04:36:55;75182.75;;;-142.75;100.00
41632;BME280;37452;51.938;4.624;2023-03-14T04:39:20;75167.00;;;-142.75;100.00
41632;BME280;37452;51.938;4.624;2023-03-14T04:41:45;75192.59;;;-142.75;100.00
41632;BME280;37452;51.938;4.624;2023-03-14T04:44:11;75176.84;;;-142.75;100.00
41632;BME280;37452;51.938;4.624;2023-03-14T04:46:36;75180.78;;;-142.75;100.00
41632;BME280;37452;51.938;4.624;2023-03-14T04:49:01;75176.84;;;-142.75;100.00
41632;BME280;37452;51.938;4.624;2023-03-14T04:51:26;75172.91;;;-142.75;100.00
41632;BME280;37452;51.938;4.624;2023-03-14T04:53:52;75172.91;;;-142.75;100.00
41632;BME280;37452;51.938;4.624;2023-03-14T04:56:18;75161.13;;;-142.75;100.00
41632;BME280;37452;51.938;4.624;2023-03-14T04:58:43;75157.19;;;-142.75;100.00
41632;BME280;37452;51.938;4.624;2023-03-14T05:01:09;75165.03;;;-142.75;100.00
41632;BME280;37452;51.938;4.624;2023-03-14T05:03:34;75153.25;;;-142.75;100.00
41632;BME280;37452;51.938;4.624;2023-03-14T05:06:01;75157.19;;;-142.75;100.00
41632;BME280;37452;51.938;4.624;2023-03-14T05:08:26;75155.22;;;-142.75;100.00
41632;BME280;37452;51.938;4.624;2023-03-14T05:10:55;75161.13;;;-142.75;100.00
41632;BME280;37452;51.938;4.624;2023-03-14T05:13:21;75143.41;;;-142.75;100.00
41632;BME280;37452;51.938;4.624;2023-03-14T05:15:46;75155.22;;;-142.75;100.00
41632;BME280;37452;51.938;4.624;2023-03-14T05:18:11;75133.56;;;-142.75;100.00
41632;BME280;37452;51.938;4.624;2023-03-14T05:20:36;75149.31;;;-142.75;100.00
41632;BME280;37452;51.938;4.624;2023-03-14T05:23:02;75135.53;;;-142.75;100.00
41632;BME280;37452;51.938;4.624;2023-03-14T05:25:27;75129.63;;;-142.75;100.00
41632;BME280;37452;51.938;4.624;2023-03-14T05:27:55;75117.81;;;-142.75;100.00
41632;BME280;37452;51.938;4.624;2023-03-14T05:30:20;75121.75;;;-142.75;100.00
41632;BME280;37452;51.938;4.624;2023-03-14T05:32:46;75131.59;;;-142.75;100.00
41632;BME280;37452;51.938;4.624;2023-03-14T05:35:11;75121.75;;;-142.75;100.00
41632;BME280;37452;51.938;4.624;2023-03-14T05:37:37;75111.91;;;-142.75;100.00
41632;BME280;37452;51.938;4.624;2023-03-14T05:40:02;75113.88;;;-142.75;100.00
41632;BME280;37452;51.938;4.624;2023-03-14T05:42:28;75115.84;;;-142.75;100.00
41632;BME280;37452;51.938;4.624;2023-03-14T05:44:53;75139.47;;;-142.75;100.00
41632;BME280;37452;51.938;4.624;2023-03-14T05:47:18;75180.78;;;-142.75;100.00
41632;BME280;37452;51.938;4.624;2023-03-14T05:49:43;75222.13;;;-142.75;100.00
41632;BME280;37452;51.938;4.624;2023-03-14T05:52:09;75255.56;;;-142.75;100.00
41632;BME280;37452;51.938;4.624;2023-03-14T05:54:34;75267.38;;;-142.75;100.00
41632;BME280;37452;51.938;4.624;2023-03-14T05:56:59;75304.75;;;-142.75;100.00
41632;BME280;37452;51.938;4.624;2023-03-14T05:59:24;75306.72;;;-142.75;100.00
41632;BME280;37452;51.938;4.624;2023-03-14T06:01:50;75314.59;;;-142.75;100.00
41632;BME280;37452;51.938;4.624;2023-03-14T06:04:15;75342.16;;;-142.75;100.00
41632;BME280;37452;51.938;4.624;2023-03-14T06:06:40;75352.00;;;-142.75;100.00
41632;BME280;37452;51.938;4.624;2023-03-14T06:09:05;75363.78;;;-142.75;100.00
41632;BME280;37452;51.938;4.624;2023-03-14T06:11:31;75373.63;;;-142.75;100.00
41632;BME280;37452;51.938;4.624;2023-03-14T06:13:56;75395.28;;;-142.75;100.00
41632;BME280;37452;51.938;4.624;2023-03-14T06:16:21;75418.91;;;-142.75;100.00
41632;BME280;37452;51.938;4.624;2023-03-14T06:18:46;75420.88;;;-142.75;100.00
41632;BME280;37452;51.938;4.624;2023-03-14T06:21:13;75409.06;;;-142.75;100.00
41632;BME280;37452;51.938;4.624;2023-03-14T06:23:39;75420.88;;;-142.75;100.00
41632;BME280;37452;51.938;4.624;2023-03-14T06:26:04;75440.53;;;-142.75;100.00
41632;BME280;37452;51.938;4.624;2023-03-14T06:28:29;75434.66;;;-142.75;100.00
41632;BME280;37452;51.938;4.624;2023-03-14T06:30:54;75446.44;;;-142.75;100.00
41632;BME280;37452;51.938;4.624;2023-03-14T06:33:20;75444.47;;;-142.75;100.00
41632;BME280;37452;51.938;4.624;2023-03-14T06:35:45;75432.69;;;-142.75;100.00
41632;BME280;37452;51.938;4.624;2023-03-14T06:38:10;75436.59;;;-142.75;100.00
41632;BME280;37452;51.938;4.624;2023-03-14T06:40:35;75456.28;;;-142.75;100.00
41632;BME280;37452;51.938;4.624;2023-03-14T06:43:01;75450.38;;;-142.75;100.00
41632;BME280;37452;51.938;4.624;2023-03-14T06:45:26;75468.09;;;-142.75;100.00
41632;BME280;37452;51.938;4.624;2023-03-14T06:47:51;75479.91;;;-142.75;100.00
41632;BME280;37452;51.938;4.624;2023-03-14T06:50:16;75499.59;;;-142.75;100.00
41632;BME280;37452;51.938;4.624;2023-03-14T06:52:41;75519.25;;;-142.75;100.00
41632;BME280;37452;51.938;4.624;2023-03-14T06:55:12;75535.00;;;-142.75;100.00
41632;BME280;37452;51.938;4.624;2023-03-14T06:57:37;75531.06;;;-142.75;100.00
41632;BME280;37452;51.938;4.624;2023-03-14T07:00:03;75540.91;;;-142.75;100.00
41632;BME280;37452;51.938;4.624;2023-03-14T07:02:28;75564.53;;;-142.75;100.00
41632;BME280;37452;51.938;4.624;2023-03-14T07:04:53;75582.25;;;-142.75;100.00
41632;BME280;37452;51.938;4.624;2023-03-14T07:07:19;75574.38;;;-142.75;100.00
41632;BME280;37452;51.938;4.624;2023-03-14T07:09:44;75592.09;;;-142.75;100.00
41632;BME280;37452;51.938;4.624;2023-03-14T07:12:09;75599.94;;;-142.75;100.00
41632;BME280;37452;51.938;4.624;2023-03-14T07:14:37;75609.78;;;-142.75;100.00
41632;BME280;37452;51.938;4.624;2023-03-14T07:17:02;75633.41;;;-142.75;100.00
41632;BME280;37452;51.938;4.624;2023-03-14T07:19:27;75625.53;;;-142.75;100.00
41632;BME280;37452;51.938;4.624;2023-03-14T07:21:52;75611.75;;;-142.75;100.00
41632;BME280;37452;51.938;4.624;2023-03-14T07:24:18;75621.59;;;-142.75;100.00
41632;BME280;37452;51.938;4.624;2023-03-14T07:26:43;75615.69;;;-142.75;100.00
41632;BME280;37452;51.938;4.624;2023-03-14T07:29:08;75627.50;;;-142.75;100.00
41632;BME280;37452;51.938;4.624;2023-03-14T07:31:33;75635.38;;;-142.75;100.00
41632;BME280;37452;51.938;4.624;2023-03-14T07:33:59;75631.44;;;-142.75;100.00
41632;BME280;37452;51.938;4.624;2023-03-14T07:36:26;75643.25;;;-142.75;100.00
41632;BME280;37452;51.938;4.624;2023-03-14T07:38:51;75657.03;;;-142.75;100.00
41632;BME280;37452;51.938;4.624;2023-03-14T07:41:17;75680.63;;;-142.75;100.00
41632;BME280;37452;51.938;4.624;2023-03-14T07:43:42;75676.69;;;-142.75;100.00
41632;BME280;37452;51.938;4.624;2023-03-14T07:46:08;75676.69;;;-142.75;100.00
41632;BME280;37452;51.938;4.624;2023-03-14T07:48:33;75688.50;;;-142.75;100.00
41632;BME280;37452;51.938;4.624;2023-03-14T07:50:58;75702.28;;;-142.75;100.00
41632;BME280;37452;51.938;4.624;2023-03-14T07:53:24;75712.13;;;-142.75;100.00
41632;BME280;37452;51.938;4.624;2023-03-14T07:55:52;75739.69;;;-142.75;100.00
41632;BME280;37452;51.938;4.624;2023-03-14T07:58:19;75729.84;;;-142.75;100.00
41632;BME280;37452;51.938;4.624;2023-03-14T08:00:44;75759.38;;;-142.75;100.00
41632;BME280;37452;51.938;4.624;2023-03-14T08:03:09;75771.16;;;-142.75;100.00
41632;BME280;37452;51.938;4.624;2023-03-14T08:05:35;75820.38;;;-142.75;100.00
41632;BME280;37452;51.938;4.624;2023-03-14T08:08:00;75849.91;;;-142.75;100.00
41632;BME280;37452;51.938;4.624;2023-03-14T08:10:26;75883.34;;;-142.75;100.00
41632;BME280;37452;51.938;4.624;2023-03-14T08:12:56;75905.00;;;-142.75;100.00
41632;BME280;37452;51.938;4.624;2023-03-14T08:15:22;75893.19;;;-142.75;100.00
41632;BME280;37452;51.938;4.624;2023-03-14T08:17:47;75877.44;;;-142.75;100.00
41632;BME280;37452;51.938;4.624;2023-03-14T08:20:16;75895.16;;;-142.75;100.00
41632;BME280;37452;51.938;4.624;2023-03-14T08:22:41;75905.00;;;-142.75;100.00
41632;BME280;37452;51.938;4.624;2023-03-14T08:25:07;75932.56;;;-142.75;100.00
41632;BME280;37452;51.938;4.624;2023-03-14T08:27:32;75926.66;;;-142.75;100.00
41632;BME280;37452;51.938;4.624;2023-03-14T08:29:57;75964.03;;;-142.75;100.00
41632;BME280;37452;51.938;4.624;2023-03-14T08:32:22;75975.84;;;-142.75;100.00
41632;BME280;37452;51.938;4.624;2023-03-14T08:34:48;75991.59;;;-142.75;100.00
41632;BME280;37452;51.938;4.624;2023-03-14T08:37:14;76015.22;;;-142.75;100.00
41632;BME280;37452;51.938;4.624;2023-03-14T08:39:39;76048.69;;;-142.75;100.00
41632;BME280;37452;51.938;4.624;2023-03-14T08:42:04;76070.34;;;-142.75;100.00
41632;BME280;37452;51.938;4.624;2023-03-14T08:44:29;76066.41;;;-142.75;100.00
41632;BME280;37452;51.938;4.624;2023-03-14T08:46:55;76099.84;;;-142.75;100.00
41632;BME280;37452;51.938;4.624;2023-03-14T08:49:20;76129.38;;;-142.75;100.00
41632;BME280;37452;51.938;4.624;2023-03-14T08:51:45;76149.06;;;-142.75;100.00
41632;BME280;37452;51.938;4.624;2023-03-14T08:54:11;76147.09;;;-142.75;100.00
41632;BME280;37452;51.938;4.624;2023-03-14T08:56:36;76156.94;;;-142.75;100.00
41632;BME280;37452;51.938;4.624;2023-03-14T08:59:03;76172.69;;;-142.75;100.00
41632;BME280;37452;51.938;4.624;2023-03-14T09:01:28;76192.38;;;-142.75;100.00
41632;BME280;37452;51.938;4.624;2023-03-14T09:03:53;76168.75;;;-142.75;100.00
41632;BME280;37452;51.938;4.624;2023-03-14T09:06:18;76188.44;;;-142.75;100.00
41632;BME280;37452;51.938;4.624;2023-03-14T09:08:44;76186.47;;;-142.75;100.00
41632;BME280;37452;51.938;4.624;2023-03-14T09:11:09;76204.16;;;-142.75;100.00
41632;BME280;37452;51.938;4.624;2023-03-14T09:13:35;76225.81;;;-142.75;100.00
41632;BME280;37452;51.938;4.624;2023-03-14T09:16:01;76215.97;;;-142.75;100.00
41632;BME280;37452;51.938;4.624;2023-03-14T09:18:26;76184.50;;;-142.75;100.00
41632;BME280;37452;51.938;4.624;2023-03-14T09:20:51;76192.38;;;-142.75;100.00
41632;BME280;37452;51.938;4.624;2023-03-14T09:23:17;76170.72;;;-142.75;100.00
41632;BME280;37452;51.938;4.624;2023-03-14T09:25:42;76180.56;;;-142.75;100.00
41632;BME280;37452;51.938;4.624;2023-03-14T09:28:07;76188.44;;;-142.75;100.00
41632;BME280;37452;51.938;4.624;2023-03-14T09:30:32;76208.09;;;-142.75;100.00
41632;BME280;37452;51.938;4.624;2023-03-14T09:32:57;76194.34;;;-142.75;100.00
41632;BME280;37452;51.938;4.624;2023-03-14T09:35:24;76219.91;;;-142.75;100.00
41632;BME280;37452;51.938;4.624;2023-03-14T09:37:51;76217.94;;;-142.75;100.00
41632;BME280;37452;51.938;4.624;2023-03-14T09:40:16;76235.66;;;-142.75;100.00
41632;BME280;37452;51.938;4.624;2023-03-14T09:42:43;76237.63;;;-142.75;100.00
41632;BME280;37452;51.938;4.624;2023-03-14T09:45:11;76306.53;;;-142.75;100.00
41632;BME280;37452;51.938;4.624;2023-03-14T09:47:36;76322.28;;;-142.75;100.00
41632;BME280;37452;51.938;4.624;2023-03-14T09:50:02;76363.59;;;-142.75;100.00
41632;BME280;37452;51.938;4.624;2023-03-14T09:52:32;76389.19;;;-142.75;100.00
41632;BME280;37452;51.938;4.624;2023-03-14T09:54:59;76406.91;;;-142.75;100.00
41632;BME280;37452;51.938;4.624;2023-03-14T09:57:25;76397.06;;;-142.75;100.00
41632;BME280;37452;51.938;4.624;2023-03-14T09:59:51;76353.78;;;-142.75;100.00
41632;BME280;37452;51.938;4.624;2023-03-14T10:02:22;76310.47;;;-142.75;100.00
41632;BME280;37452;51.938;4.624;2023-03-14T10:04:48;76241.56;;;-142.75;100.00
41632;BME280;37452;51.938;4.624;2023-03-14T10:07:15;76208.09;;;-142.75;100.00
41632;BME280;37452;51.938;4.624;2023-03-14T10:09:43;76239.59;;;-142.75;100.00
41632;BME280;37452;51.938;4.624;2023-03-14T10:12:08;76296.69;;;-142.75;100.00
41632;BME280;37452;51.938;4.624;2023-03-14T10:14:34;76332.13;;;-142.75;100.00
41632;BME280;37452;51.938;4.624;2023-03-14T10:17:10;76345.91;;;-142.75;100.00
41632;BME280;37452;51.938;4.624;2023-03-14T10:19:36;76349.81;;;-142.75;100.00
41632;BME280;37452;51.938;4.624;2023-03-14T10:22:03;76369.50;;;-142.75;100.00
41632;BME280;37452;51.938;4.624;2023-03-14T10:24:33;76410.84;;;-142.75;100.00
41632;BME280;37452;51.938;4.624;2023-03-14T10:27:01;76436.44;;;-142.75;100.00
41632;BME280;37452;51.938;4.624;2023-03-14T10:29:27;76450.22;;;-142.75;100.00
41632;BME280;37452;51.938;4.624;2023-03-14T10:32:00;76430.53;;;-142.75;100.00
41632;BME280;37452;51.938;4.624;2023-03-14T10:34:27;76446.28;;;-142.75;100.00
41632;BME280;37452;51.938;4.624;2023-03-14T10:37:05;76440.38;;;-142.75;100.00
41632;BME280;37452;51.938;4.624;2023-03-14T10:39:49;76475.81;;;-142.75;100.00
41632;BME280;37452;51.938;4.624;2023-03-14T10:42:19;76534.84;;;-142.75;100.00
41632;BME280;37452;51.938;4.624;2023-03-14T10:44:47;76550.59;;;-142.75;100.00
41632;BME280;37452;51.938;4.624;2023-03-14T10:47:15;76566.34;;;-142.75;100.00
41632;BME280;37452;51.938;4.624;2023-03-14T10:49:42;76568.31;;;-142.75;100.00
41632;BME280;37452;51.938;4.624;2023-03-14T10:54:48;76591.94;;;-142.75;100.00
41632;BME280;37452;51.938;4.624;2023-03-14T10:57:13;76595.88;;;-142.75;100.00
41632;BME280;37452;51.938;4.624;2023-03-14T10:59:39;76613.59;;;-142.75;100.00
41632;BME280;37452;51.938;4.624;2023-03-14T11:02:10;76613.59;;;-142.75;100.00
41632;BME280;37452;51.938;4.624;2023-03-14T11:10:03;76668.72;;;-142.75;100.00
41632;BME280;37452;51.938;4.624;2023-03-14T11:15:16;76556.50;;;-142.75;100.00
41632;BME280;37452;51.938;4.624;2023-03-14T11:17:56;76477.78;;;-142.75;100.00
41632;BME280;37452;51.938;4.624;2023-03-14T11:20:30;76365.56;;;-142.75;100.00
41632;BME280;37452;51.938;4.624;2023-03-14T11:23:07;76286.84;;;-142.75;100.00
41632;BME280;37452;51.938;4.624;2023-03-14T11:25:38;76271.09;;;-142.75;100.00
41632;BME280;37452;51.938;4.624;2023-03-14T11:33:41;76259.28;;;-142.75;100.00
41632;BME280;37452;51.938;4.624;2023-03-14T11:36:11;76286.84;;;-142.75;100.00
41632;BME280;37452;51.938;4.624;2023-03-14T11:38:46;76278.97;;;-142.75;100.00
41632;BME280;37452;51.938;4.624;2023-03-14T11:41:30;76178.59;;;-142.75;100.00
41632;BME280;37452;51.938;4.624;2023-03-14T11:43:57;76288.81;;;-142.75;87.76
41632;BME280;37452;51.938;4.624;2023-03-14T11:51:35;76241.56;;;-142.75;78.99
41632;BME280;37452;51.938;4.624;2023-03-14T11:54:16;76282.91;;;-142.75;74.70
41632;BME280;37452;51.938;4.624;2023-03-14T11:56:48;76245.50;;;-142.75;70.77
41632;BME280;37452;51.938;4.624;2023-03-14T11:59:17;76261.25;;;-142.75;71.55
41632;BME280;37452;51.938;4.624;2023-03-14T12:01:53;76263.22;;;-142.75;72.37
41632;BME280;37452;51.938;4.624;2023-03-14T12:04:24;76235.66;;;-142.75;74.18
41632;BME280;37452;51.938;4.624;2023-03-14T12:06:53;76200.25;;;-142.75;73.20
41632;BME280;37452;51.938;4.624;2023-03-14T12:09:21;76292.75;;;-142.75;70.51
41632;BME280;37452;51.938;4.624;2023-03-14T12:11:48;76300.63;;;-142.75;71.93
41632;BME280;37452;51.938;4.624;2023-03-14T12:16:46;76408.88;;;-142.75;75.37
41632;BME280;37452;51.938;4.624;2023-03-14T12:19:34;76387.22;;;-142.75;77.01
41632;BME280;37452;51.938;4.624;2023-03-14T12:22:05;76395.09;;;-142.75;75.29
41632;BME280;37452;51.938;4.624;2023-03-14T12:24:34;76432.50;;;-142.75;73.87
41632;BME280;37452;51.938;4.624;2023-03-14T12:27:00;76467.94;;;-142.75;72.90
41632;BME280;37452;51.938;4.624;2023-03-14T12:29:26;76503.38;;;-142.75;72.27
41632;BME280;37452;51.938;4.624;2023-03-14T12:32:21;76475.81;;;-142.75;74.36
41632;BME280;37452;51.938;4.624;2023-03-14T12:34:40;76491.56;;;-142.75;75.85
41632;BME280;37452;51.938;4.624;2023-03-14T12:37:10;76471.88;;;-142.75;75.86
41632;BME280;37452;51.938;4.624;2023-03-14T12:44:53;76442.34;;;-142.75;74.41
41632;BME280;37452;51.938;4.624;2023-03-14T12:50:18;76379.34;;;-142.75;74.67
41632;BME280;37452;51.938;4.624;2023-03-14T12:52:49;76351.81;;;-142.75;74.25
41632;BME280;37452;51.938;4.624;2023-03-14T12:57:51;76298.66;;;-142.75;75.22
41632;BME280;37452;51.938;4.624;2023-03-14T13:00:22;76361.63;;;-142.75;70.67
41632;BME280;37452;51.938;4.624;2023-03-14T13:02:49;76430.53;;;-142.75;63.70
41632;BME280;37452;51.938;4.624;2023-03-14T13:12:41;76420.69;;;-142.75;63.64
41632;BME280;37452;51.938;4.624;2023-03-14T13:15:17;76436.44;;;-142.75;62.31
41632;BME280;37452;51.938;4.624;2023-03-14T13:17:43;76469.91;;;-142.75;61.37
41632;BME280;37452;51.938;4.624;2023-03-14T13:22:52;76568.31;;;-142.75;60.50
41632;BME280;37452;51.938;4.624;2023-03-14T13:25:18;76647.06;;;-142.75;62.18